Terminal Aerodrome Forecast
Issued by NWS North Platte, NE

Home | Current Version | Previous Version | Text Only | Print | Product List | Glossary On
Versions: 1 2 3 4 5 6 7 8 9 10 11 12 13
000
FTUS43 KLBF 291100
TAFLBF
TAF
KLBF 291120Z 2912/3012 11006KT P6SM BKN050 BKN100 OVC200
      TEMPO 2912/2913 5SM BR
     FM300000 08005KT P6SM BKN200=

USA.gov is the U.S. government's official web portal to all federal, state and local government web resources and services.